sensor_id;sensor_type;location;lat;lon;timestamp;P1;durP1;ratioP1;P2;durP2;ratioP2
74974;SDS011;68459;50.836;19.138;2023-04-24T00:00:20;20.92;;;11.38;;
74974;SDS011;68459;50.836;19.138;2023-04-24T00:03:46;20.50;;;10.43;;
74974;SDS011;68459;50.836;19.138;2023-04-24T00:06:49;20.17;;;10.90;;
74974;SDS011;68459;50.836;19.138;2023-04-24T00:09:55;23.73;;;11.27;;
74974;SDS011;68459;50.836;19.138;2023-04-24T00:12:59;26.73;;;11.93;;
74974;SDS011;68459;50.836;19.138;2023-04-24T00:16:04;25.90;;;12.98;;
74974;SDS011;68459;50.836;19.138;2023-04-24T00:19:09;20.55;;;11.90;;
74974;SDS011;68459;50.836;19.138;2023-04-24T00:22:14;22.48;;;11.43;;
74974;SDS011;68459;50.836;19.138;2023-04-24T00:25:18;19.15;;;11.20;;
74974;SDS011;68459;50.836;19.138;2023-04-24T00:28:22;23.13;;;11.63;;
74974;SDS011;68459;50.836;19.138;2023-04-24T00:31:25;23.95;;;10.95;;
74974;SDS011;68459;50.836;19.138;2023-04-24T00:34:30;23.73;;;11.57;;
74974;SDS011;68459;50.836;19.138;2023-04-24T00:37:34;22.98;;;11.85;;
74974;SDS011;68459;50.836;19.138;2023-04-24T00:40:38;22.45;;;11.82;;
74974;SDS011;68459;50.836;19.138;2023-04-24T00:43:42;25.00;;;12.57;;
74974;SDS011;68459;50.836;19.138;2023-04-24T00:46:46;24.42;;;12.02;;
74974;SDS011;68459;50.836;19.138;2023-04-24T00:49:55;17.75;;;11.38;;
74974;SDS011;68459;50.836;19.138;2023-04-24T00:52:58;25.73;;;11.55;;
74974;SDS011;68459;50.836;19.138;2023-04-24T00:56:02;22.67;;;11.60;;
74974;SDS011;68459;50.836;19.138;2023-04-24T00:59:08;21.17;;;11.32;;
74974;SDS011;68459;50.836;19.138;2023-04-24T01:02:12;21.25;;;11.25;;
74974;SDS011;68459;50.836;19.138;2023-04-24T01:05:19;23.17;;;11.03;;
74974;SDS011;68459;50.836;19.138;2023-04-24T01:08:22;22.70;;;11.45;;
74974;SDS011;68459;50.836;19.138;2023-04-24T01:11:31;16.90;;;9.82;;
74974;SDS011;68459;50.836;19.138;2023-04-24T01:14:34;17.80;;;9.20;;
74974;SDS011;68459;50.836;19.138;2023-04-24T01:17:39;18.75;;;10.48;;
74974;SDS011;68459;50.836;19.138;2023-04-24T01:20:44;19.33;;;9.82;;
74974;SDS011;68459;50.836;19.138;2023-04-24T01:23:51;18.77;;;9.30;;
74974;SDS011;68459;50.836;19.138;2023-04-24T01:26:55;15.02;;;9.45;;
74974;SDS011;68459;50.836;19.138;2023-04-24T01:29:59;17.88;;;9.02;;
74974;SDS011;68459;50.836;19.138;2023-04-24T01:33:04;16.73;;;9.27;;
74974;SDS011;68459;50.836;19.138;2023-04-24T01:36:08;13.83;;;8.23;;
74974;SDS011;68459;50.836;19.138;2023-04-24T01:39:15;14.32;;;8.30;;
74974;SDS011;68459;50.836;19.138;2023-04-24T01:42:21;13.95;;;8.20;;
74974;SDS011;68459;50.836;19.138;2023-04-24T01:45:25;13.10;;;8.73;;
74974;SDS011;68459;50.836;19.138;2023-04-24T01:48:29;15.68;;;8.50;;
74974;SDS011;68459;50.836;19.138;2023-04-24T01:51:33;16.35;;;8.73;;
74974;SDS011;68459;50.836;19.138;2023-04-24T01:54:39;14.38;;;8.82;;
74974;SDS011;68459;50.836;19.138;2023-04-24T01:57:42;16.98;;;9.25;;
74974;SDS011;68459;50.836;19.138;2023-04-24T02:00:46;15.95;;;8.48;;
74974;SDS011;68459;50.836;19.138;2023-04-24T02:03:50;13.63;;;8.65;;
74974;SDS011;68459;50.836;19.138;2023-04-24T02:06:54;15.07;;;8.40;;
74974;SDS011;68459;50.836;19.138;2023-04-24T02:10:00;14.52;;;8.38;;
74974;SDS011;68459;50.836;19.138;2023-04-24T02:13:04;14.35;;;8.55;;
74974;SDS011;68459;50.836;19.138;2023-04-24T02:16:07;16.77;;;8.80;;
74974;SDS011;68459;50.836;19.138;2023-04-24T02:19:11;14.02;;;8.13;;
74974;SDS011;68459;50.836;19.138;2023-04-24T02:22:15;13.77;;;8.55;;
74974;SDS011;68459;50.836;19.138;2023-04-24T02:25:20;14.43;;;8.23;;
74974;SDS011;68459;50.836;19.138;2023-04-24T02:28:24;13.18;;;8.38;;
74974;SDS011;68459;50.836;19.138;2023-04-24T02:31:28;12.65;;;8.27;;
74974;SDS011;68459;50.836;19.138;2023-04-24T02:34:32;13.80;;;8.40;;
74974;SDS011;68459;50.836;19.138;2023-04-24T02:37:36;16.63;;;8.37;;
74974;SDS011;68459;50.836;19.138;2023-04-24T02:40:41;17.20;;;8.93;;
74974;SDS011;68459;50.836;19.138;2023-04-24T02:43:45;14.90;;;9.10;;
74974;SDS011;68459;50.836;19.138;2023-04-24T02:46:48;18.90;;;9.33;;
74974;SDS011;68459;50.836;19.138;2023-04-24T02:49:52;14.77;;;8.85;;
74974;SDS011;68459;50.836;19.138;2023-04-24T02:52:56;18.70;;;9.55;;
74974;SDS011;68459;50.836;19.138;2023-04-24T02:56:01;18.67;;;9.00;;
74974;SDS011;68459;50.836;19.138;2023-04-24T02:59:05;20.85;;;9.93;;
74974;SDS011;68459;50.836;19.138;2023-04-24T03:02:09;16.90;;;9.77;;
74974;SDS011;68459;50.836;19.138;2023-04-24T03:05:13;16.98;;;9.23;;
74974;SDS011;68459;50.836;19.138;2023-04-24T03:08:16;21.47;;;10.13;;
74974;SDS011;68459;50.836;19.138;2023-04-24T03:11:22;25.13;;;10.25;;
74974;SDS011;68459;50.836;19.138;2023-04-24T03:14:27;22.33;;;10.88;;
74974;SDS011;68459;50.836;19.138;2023-04-24T03:17:32;21.20;;;9.77;;
74974;SDS011;68459;50.836;19.138;2023-04-24T03:20:37;21.70;;;10.75;;
74974;SDS011;68459;50.836;19.138;2023-04-24T03:23:42;21.60;;;10.75;;
74974;SDS011;68459;50.836;19.138;2023-04-24T03:26:47;21.27;;;10.00;;
74974;SDS011;68459;50.836;19.138;2023-04-24T03:30:14;17.95;;;9.88;;
74974;SDS011;68459;50.836;19.138;2023-04-24T03:33:26;21.00;;;10.38;;
74974;SDS011;68459;50.836;19.138;2023-04-24T03:36:34;18.30;;;10.02;;
74974;SDS011;68459;50.836;19.138;2023-04-24T03:39:41;22.53;;;10.37;;
74974;SDS011;68459;50.836;19.138;2023-04-24T03:42:47;17.85;;;10.15;;
74974;SDS011;68459;50.836;19.138;2023-04-24T03:45:51;20.98;;;10.27;;
74974;SDS011;68459;50.836;19.138;2023-04-24T03:48:56;21.87;;;10.90;;
74974;SDS011;68459;50.836;19.138;2023-04-24T03:52:04;17.90;;;10.35;;
74974;SDS011;68459;50.836;19.138;2023-04-24T03:55:08;17.92;;;9.43;;
74974;SDS011;68459;50.836;19.138;2023-04-24T03:58:20;19.42;;;10.50;;
74974;SDS011;68459;50.836;19.138;2023-04-24T04:01:24;20.75;;;9.73;;
74974;SDS011;68459;50.836;19.138;2023-04-24T04:04:36;21.77;;;10.87;;
74974;SDS011;68459;50.836;19.138;2023-04-24T04:07:40;17.83;;;10.23;;
74974;SDS011;68459;50.836;19.138;2023-04-24T04:10:44;18.50;;;9.77;;
74974;SDS011;68459;50.836;19.138;2023-04-24T04:13:49;16.73;;;9.15;;
74974;SDS011;68459;50.836;19.138;2023-04-24T04:16:56;19.00;;;10.02;;
74974;SDS011;68459;50.836;19.138;2023-04-24T04:20:00;22.27;;;10.30;;
74974;SDS011;68459;50.836;19.138;2023-04-24T04:23:09;18.17;;;9.93;;
74974;SDS011;68459;50.836;19.138;2023-04-24T04:26:23;19.08;;;10.00;;
74974;SDS011;68459;50.836;19.138;2023-04-24T04:29:49;21.05;;;11.32;;
74974;SDS011;68459;50.836;19.138;2023-04-24T04:32:54;19.25;;;10.23;;
74974;SDS011;68459;50.836;19.138;2023-04-24T04:35:58;21.50;;;11.27;;
74974;SDS011;68459;50.836;19.138;2023-04-24T04:39:05;20.58;;;11.00;;
74974;SDS011;68459;50.836;19.138;2023-04-24T04:42:23;21.27;;;10.37;;
74974;SDS011;68459;50.836;19.138;2023-04-24T04:45:28;19.88;;;11.10;;
74974;SDS011;68459;50.836;19.138;2023-04-24T04:48:53;19.87;;;10.70;;
74974;SDS011;68459;50.836;19.138;2023-04-24T04:51:59;20.83;;;10.60;;
74974;SDS011;68459;50.836;19.138;2023-04-24T04:55:03;22.58;;;11.07;;
74974;SDS011;68459;50.836;19.138;2023-04-24T04:58:30;20.02;;;11.70;;
74974;SDS011;68459;50.836;19.138;2023-04-24T05:01:38;21.73;;;11.40;;
74974;SDS011;68459;50.836;19.138;2023-04-24T05:04:42;20.95;;;11.05;;
74974;SDS011;68459;50.836;19.138;2023-04-24T05:07:47;21.48;;;11.02;;
74974;SDS011;68459;50.836;19.138;2023-04-24T05:10:51;24.10;;;10.68;;
74974;SDS011;68459;50.836;19.138;2023-04-24T05:13:55;24.77;;;10.53;;
74974;SDS011;68459;50.836;19.138;2023-04-24T05:17:10;19.35;;;10.77;;
74974;SDS011;68459;50.836;19.138;2023-04-24T05:20:14;25.40;;;11.15;;
74974;SDS011;68459;50.836;19.138;2023-04-24T05:23:18;20.20;;;11.03;;
74974;SDS011;68459;50.836;19.138;2023-04-24T05:26:26;24.60;;;11.93;;
74974;SDS011;68459;50.836;19.138;2023-04-24T05:29:32;22.92;;;10.77;;
74974;SDS011;68459;50.836;19.138;2023-04-24T05:32:39;19.33;;;10.77;;
74974;SDS011;68459;50.836;19.138;2023-04-24T05:35:43;23.20;;;11.55;;
74974;SDS011;68459;50.836;19.138;2023-04-24T05:38:49;19.88;;;10.27;;
74974;SDS011;68459;50.836;19.138;2023-04-24T05:41:53;26.38;;;11.30;;
74974;SDS011;68459;50.836;19.138;2023-04-24T05:44:56;25.40;;;11.03;;
74974;SDS011;68459;50.836;19.138;2023-04-24T05:48:02;22.42;;;11.35;;
74974;SDS011;68459;50.836;19.138;2023-04-24T05:51:09;23.52;;;10.90;;
74974;SDS011;68459;50.836;19.138;2023-04-24T05:54:13;22.20;;;11.17;;
74974;SDS011;68459;50.836;19.138;2023-04-24T05:57:16;22.65;;;10.10;;
74974;SDS011;68459;50.836;19.138;2023-04-24T06:00:27;20.70;;;9.73;;
74974;SDS011;68459;50.836;19.138;2023-04-24T06:03:40;19.52;;;9.45;;
74974;SDS011;68459;50.836;19.138;2023-04-24T06:06:44;15.25;;;8.93;;
74974;SDS011;68459;50.836;19.138;2023-04-24T06:09:48;27.50;;;9.93;;
74974;SDS011;68459;50.836;19.138;2023-04-24T06:12:52;21.63;;;8.55;;
74974;SDS011;68459;50.836;19.138;2023-04-24T06:15:58;29.93;;;9.37;;
74974;SDS011;68459;50.836;19.138;2023-04-24T06:19:09;20.80;;;8.48;;
74974;SDS011;68459;50.836;19.138;2023-04-24T06:22:13;17.25;;;6.43;;
74974;SDS011;68459;50.836;19.138;2023-04-24T06:25:16;11.27;;;5.40;;
74974;SDS011;68459;50.836;19.138;2023-04-24T06:28:21;10.55;;;4.85;;
74974;SDS011;68459;50.836;19.138;2023-04-24T06:31:26;9.18;;;4.63;;
74974;SDS011;68459;50.836;19.138;2023-04-24T06:34:31;9.93;;;4.70;;
74974;SDS011;68459;50.836;19.138;2023-04-24T06:37:36;8.73;;;4.85;;
74974;SDS011;68459;50.836;19.138;2023-04-24T06:40:39;9.75;;;4.28;;
74974;SDS011;68459;50.836;19.138;2023-04-24T06:43:45;7.82;;;3.88;;
74974;SDS011;68459;50.836;19.138;2023-04-24T06:46:49;7.93;;;4.43;;
74974;SDS011;68459;50.836;19.138;2023-04-24T06:49:54;8.73;;;4.40;;
74974;SDS011;68459;50.836;19.138;2023-04-24T06:52:58;8.25;;;4.20;;
74974;SDS011;68459;50.836;19.138;2023-04-24T06:56:01;7.60;;;4.90;;
74974;SDS011;68459;50.836;19.138;2023-04-24T06:59:05;6.53;;;3.75;;
74974;SDS011;68459;50.836;19.138;2023-04-24T07:02:09;10.43;;;4.47;;
74974;SDS011;68459;50.836;19.138;2023-04-24T07:05:14;8.85;;;3.90;;
74974;SDS011;68459;50.836;19.138;2023-04-24T07:08:21;6.40;;;4.20;;
74974;SDS011;68459;50.836;19.138;2023-04-24T07:11:25;11.02;;;4.68;;
74974;SDS011;68459;50.836;19.138;2023-04-24T07:14:31;9.77;;;4.50;;
74974;SDS011;68459;50.836;19.138;2023-04-24T07:17:34;8.17;;;4.37;;
74974;SDS011;68459;50.836;19.138;2023-04-24T07:20:41;10.35;;;4.38;;
74974;SDS011;68459;50.836;19.138;2023-04-24T07:23:45;15.48;;;4.78;;
74974;SDS011;68459;50.836;19.138;2023-04-24T07:26:49;12.40;;;4.40;;
74974;SDS011;68459;50.836;19.138;2023-04-24T07:29:54;10.57;;;4.05;;
74974;SDS011;68459;50.836;19.138;2023-04-24T07:32:58;6.35;;;3.40;;
74974;SDS011;68459;50.836;19.138;2023-04-24T07:36:04;6.05;;;3.95;;
74974;SDS011;68459;50.836;19.138;2023-04-24T07:39:08;6.93;;;3.58;;
74974;SDS011;68459;50.836;19.138;2023-04-24T07:42:12;8.90;;;3.80;;
74974;SDS011;68459;50.836;19.138;2023-04-24T07:45:15;7.88;;;3.53;;
74974;SDS011;68459;50.836;19.138;2023-04-24T07:48:19;7.83;;;3.97;;
74974;SDS011;68459;50.836;19.138;2023-04-24T07:51:25;8.25;;;3.80;;
74974;SDS011;68459;50.836;19.138;2023-04-24T07:54:29;7.35;;;3.55;;
74974;SDS011;68459;50.836;19.138;2023-04-24T07:57:33;5.10;;;2.90;;
74974;SDS011;68459;50.836;19.138;2023-04-24T08:00:36;6.35;;;3.63;;
74974;SDS011;68459;50.836;19.138;2023-04-24T08:03:40;6.97;;;3.33;;
74974;SDS011;68459;50.836;19.138;2023-04-24T08:06:46;4.95;;;3.03;;
74974;SDS011;68459;50.836;19.138;2023-04-24T08:09:50;4.78;;;3.00;;
74974;SDS011;68459;50.836;19.138;2023-04-24T08:12:54;4.45;;;3.00;;
74974;SDS011;68459;50.836;19.138;2023-04-24T08:15:58;4.72;;;2.65;;
74974;SDS011;68459;50.836;19.138;2023-04-24T08:19:02;4.53;;;2.90;;
74974;SDS011;68459;50.836;19.138;2023-04-24T08:22:07;8.63;;;3.40;;
74974;SDS011;68459;50.836;19.138;2023-04-24T08:25:10;6.82;;;4.32;;
74974;SDS011;68459;50.836;19.138;2023-04-24T08:28:14;8.57;;;2.97;;
74974;SDS011;68459;50.836;19.138;2023-04-24T08:31:21;10.65;;;3.75;;
74974;SDS011;68459;50.836;19.138;2023-04-24T08:34:26;5.53;;;3.17;;
74974;SDS011;68459;50.836;19.138;2023-04-24T08:37:32;5.88;;;3.25;;
74974;SDS011;68459;50.836;19.138;2023-04-24T08:40:36;5.47;;;2.93;;
74974;SDS011;68459;50.836;19.138;2023-04-24T08:43:41;9.27;;;3.58;;
74974;SDS011;68459;50.836;19.138;2023-04-24T08:46:45;5.85;;;3.28;;
74974;SDS011;68459;50.836;19.138;2023-04-24T08:49:53;6.22;;;3.40;;
74974;SDS011;68459;50.836;19.138;2023-04-24T08:53:00;7.18;;;3.50;;
74974;SDS011;68459;50.836;19.138;2023-04-24T08:56:06;5.70;;;3.65;;
74974;SDS011;68459;50.836;19.138;2023-04-24T08:59:10;8.52;;;3.13;;
74974;SDS011;68459;50.836;19.138;2023-04-24T09:02:14;5.67;;;3.30;;
74974;SDS011;68459;50.836;19.138;2023-04-24T09:05:20;5.60;;;3.45;;
74974;SDS011;68459;50.836;19.138;2023-04-24T09:08:30;5.75;;;3.22;;
74974;SDS011;68459;50.836;19.138;2023-04-24T09:11:35;5.57;;;3.22;;
74974;SDS011;68459;50.836;19.138;2023-04-24T09:14:40;4.00;;;3.00;;
74974;SDS011;68459;50.836;19.138;2023-04-24T09:17:47;9.73;;;3.83;;
74974;SDS011;68459;50.836;19.138;2023-04-24T09:21:01;6.10;;;3.08;;
74974;SDS011;68459;50.836;19.138;2023-04-24T09:24:15;4.75;;;2.90;;
74974;SDS011;68459;50.836;19.138;2023-04-24T09:27:23;3.88;;;2.80;;
74974;SDS011;68459;50.836;19.138;2023-04-24T09:30:27;4.68;;;3.08;;
74974;SDS011;68459;50.836;19.138;2023-04-24T09:33:31;6.28;;;2.72;;
74974;SDS011;68459;50.836;19.138;2023-04-24T09:36:36;7.47;;;2.80;;
74974;SDS011;68459;50.836;19.138;2023-04-24T09:39:44;6.72;;;2.90;;
74974;SDS011;68459;50.836;19.138;2023-04-24T09:42:51;5.70;;;3.03;;
74974;SDS011;68459;50.836;19.138;2023-04-24T09:45:57;5.63;;;2.72;;
74974;SDS011;68459;50.836;19.138;2023-04-24T09:49:07;5.37;;;3.10;;
74974;SDS011;68459;50.836;19.138;2023-04-24T09:52:13;4.22;;;2.92;;
74974;SDS011;68459;50.836;19.138;2023-04-24T09:55:20;5.60;;;3.05;;
74974;SDS011;68459;50.836;19.138;2023-04-24T09:58:24;5.30;;;2.95;;
74974;SDS011;68459;50.836;19.138;2023-04-24T10:01:29;9.10;;;4.60;;
74974;SDS011;68459;50.836;19.138;2023-04-24T10:04:34;4.63;;;3.08;;
74974;SDS011;68459;50.836;19.138;2023-04-24T10:07:38;4.03;;;2.70;;
74974;SDS011;68459;50.836;19.138;2023-04-24T10:10:44;5.15;;;2.95;;
74974;SDS011;68459;50.836;19.138;2023-04-24T10:13:48;6.07;;;2.80;;
74974;SDS011;68459;50.836;19.138;2023-04-24T10:16:53;7.40;;;3.17;;
74974;SDS011;68459;50.836;19.138;2023-04-24T10:19:59;5.40;;;2.95;;
74974;SDS011;68459;50.836;19.138;2023-04-24T10:23:04;7.25;;;3.20;;
74974;SDS011;68459;50.836;19.138;2023-04-24T10:26:10;3.92;;;2.90;;
74974;SDS011;68459;50.836;19.138;2023-04-24T10:29:19;4.37;;;2.67;;
74974;SDS011;68459;50.836;19.138;2023-04-24T10:32:24;4.57;;;3.03;;
74974;SDS011;68459;50.836;19.138;2023-04-24T10:35:30;4.90;;;2.92;;
74974;SDS011;68459;50.836;19.138;2023-04-24T10:38:36;5.90;;;2.80;;
74974;SDS011;68459;50.836;19.138;2023-04-24T10:41:44;5.77;;;3.10;;
74974;SDS011;68459;50.836;19.138;2023-04-24T10:44:48;5.25;;;2.78;;
74974;SDS011;68459;50.836;19.138;2023-04-24T10:47:54;7.10;;;2.95;;
74974;SDS011;68459;50.836;19.138;2023-04-24T10:51:06;8.73;;;2.95;;
74974;SDS011;68459;50.836;19.138;2023-04-24T10:54:24;5.45;;;2.60;;
74974;SDS011;68459;50.836;19.138;2023-04-24T10:57:31;6.90;;;3.00;;
74974;SDS011;68459;50.836;19.138;2023-04-24T11:00:36;9.77;;;2.85;;
74974;SDS011;68459;50.836;19.138;2023-04-24T11:03:40;4.40;;;3.20;;
74974;SDS011;68459;50.836;19.138;2023-04-24T11:06:58;3.97;;;2.92;;
74974;SDS011;68459;50.836;19.138;2023-04-24T11:10:02;5.18;;;2.80;;
74974;SDS011;68459;50.836;19.138;2023-04-24T11:13:08;4.57;;;2.77;;
74974;SDS011;68459;50.836;19.138;2023-04-24T11:16:14;6.70;;;3.10;;
74974;SDS011;68459;50.836;19.138;2023-04-24T11:19:24;6.50;;;2.88;;
74974;SDS011;68459;50.836;19.138;2023-04-24T11:22:30;4.47;;;2.42;;
74974;SDS011;68459;50.836;19.138;2023-04-24T11:25:38;3.58;;;2.47;;
74974;SDS011;68459;50.836;19.138;2023-04-24T11:28:47;3.80;;;2.60;;
74974;SDS011;68459;50.836;19.138;2023-04-24T11:31:51;3.83;;;2.45;;
74974;SDS011;68459;50.836;19.138;2023-04-24T11:34:56;4.60;;;2.47;;
74974;SDS011;68459;50.836;19.138;2023-04-24T11:38:02;5.93;;;2.50;;
74974;SDS011;68459;50.836;19.138;2023-04-24T11:41:09;6.25;;;2.75;;
74974;SDS011;68459;50.836;19.138;2023-04-24T11:44:16;5.67;;;2.80;;
74974;SDS011;68459;50.836;19.138;2023-04-24T11:47:28;4.25;;;2.83;;
74974;SDS011;68459;50.836;19.138;2023-04-24T11:50:33;4.75;;;2.85;;
74974;SDS011;68459;50.836;19.138;2023-04-24T11:53:36;4.68;;;2.80;;
74974;SDS011;68459;50.836;19.138;2023-04-24T11:56:44;4.05;;;2.60;;
74974;SDS011;68459;50.836;19.138;2023-04-24T11:59:50;4.43;;;2.17;;
74974;SDS011;68459;50.836;19.138;2023-04-24T12:03:03;3.60;;;2.40;;
74974;SDS011;68459;50.836;19.138;2023-04-24T12:06:10;8.50;;;2.28;;
74974;SDS011;68459;50.836;19.138;2023-04-24T12:09:16;3.30;;;2.10;;
74974;SDS011;68459;50.836;19.138;2023-04-24T12:12:19;6.95;;;2.55;;
74974;SDS011;68459;50.836;19.138;2023-04-24T12:15:24;3.95;;;2.28;;
74974;SDS011;68459;50.836;19.138;2023-04-24T12:18:29;6.63;;;2.80;;
74974;SDS011;68459;50.836;19.138;2023-04-24T12:21:33;4.72;;;2.90;;
74974;SDS011;68459;50.836;19.138;2023-04-24T12:24:54;6.80;;;3.05;;
74974;SDS011;68459;50.836;19.138;2023-04-24T12:28:09;5.32;;;3.55;;
74974;SDS011;68459;50.836;19.138;2023-04-24T12:31:16;6.10;;;3.30;;
74974;SDS011;68459;50.836;19.138;2023-04-24T12:34:21;4.75;;;3.40;;
74974;SDS011;68459;50.836;19.138;2023-04-24T12:37:32;6.05;;;3.08;;
74974;SDS011;68459;50.836;19.138;2023-04-24T12:40:39;5.85;;;3.50;;
74974;SDS011;68459;50.836;19.138;2023-04-24T12:43:51;5.90;;;3.22;;
74974;SDS011;68459;50.836;19.138;2023-04-24T12:46:58;6.30;;;3.60;;
74974;SDS011;68459;50.836;19.138;2023-04-24T12:50:02;6.43;;;3.38;;
74974;SDS011;68459;50.836;19.138;2023-04-24T12:53:08;5.68;;;3.90;;
74974;SDS011;68459;50.836;19.138;2023-04-24T12:56:11;5.35;;;3.70;;
74974;SDS011;68459;50.836;19.138;2023-04-24T12:59:15;7.40;;;3.97;;
74974;SDS011;68459;50.836;19.138;2023-04-24T13:02:20;7.07;;;4.10;;
74974;SDS011;68459;50.836;19.138;2023-04-24T13:05:25;5.95;;;3.85;;
74974;SDS011;68459;50.836;19.138;2023-04-24T13:08:28;5.47;;;3.45;;
74974;SDS011;68459;50.836;19.138;2023-04-24T13:11:32;7.05;;;4.00;;
74974;SDS011;68459;50.836;19.138;2023-04-24T13:14:36;6.30;;;4.10;;
74974;SDS011;68459;50.836;19.138;2023-04-24T13:17:41;5.57;;;3.40;;
74974;SDS011;68459;50.836;19.138;2023-04-24T13:20:45;6.85;;;3.47;;
74974;SDS011;68459;50.836;19.138;2023-04-24T13:23:49;6.20;;;3.83;;
74974;SDS011;68459;50.836;19.138;2023-04-24T13:26:53;10.02;;;5.60;;
74974;SDS011;68459;50.836;19.138;2023-04-24T13:29:58;10.57;;;4.20;;
74974;SDS011;68459;50.836;19.138;2023-04-24T13:33:03;5.68;;;4.28;;
74974;SDS011;68459;50.836;19.138;2023-04-24T13:36:07;6.37;;;3.97;;
74974;SDS011;68459;50.836;19.138;2023-04-24T13:39:11;8.23;;;4.32;;
74974;SDS011;68459;50.836;19.138;2023-04-24T13:42:16;6.07;;;4.00;;
74974;SDS011;68459;50.836;19.138;2023-04-24T13:45:20;9.07;;;4.32;;
74974;SDS011;68459;50.836;19.138;2023-04-24T13:48:28;4.88;;;3.95;;
74974;SDS011;68459;50.836;19.138;2023-04-24T13:51:32;7.03;;;4.03;;
74974;SDS011;68459;50.836;19.138;2023-04-24T13:54:36;6.32;;;4.25;;
74974;SDS011;68459;50.836;19.138;2023-04-24T13:57:40;10.13;;;4.65;;
74974;SDS011;68459;50.836;19.138;2023-04-24T14:00:44;7.27;;;4.23;;
74974;SDS011;68459;50.836;19.138;2023-04-24T14:03:49;6.80;;;4.45;;
74974;SDS011;68459;50.836;19.138;2023-04-24T14:06:53;6.72;;;4.78;;
74974;SDS011;68459;50.836;19.138;2023-04-24T14:09:57;9.50;;;5.00;;
74974;SDS011;68459;50.836;19.138;2023-04-24T14:13:01;6.17;;;4.67;;
74974;SDS011;68459;50.836;19.138;2023-04-24T14:16:04;7.53;;;4.90;;
74974;SDS011;68459;50.836;19.138;2023-04-24T14:19:11;8.40;;;5.68;;
74974;SDS011;68459;50.836;19.138;2023-04-24T14:22:14;9.15;;;5.03;;
74974;SDS011;68459;50.836;19.138;2023-04-24T14:25:18;8.10;;;5.03;;
74974;SDS011;68459;50.836;19.138;2023-04-24T14:28:23;7.20;;;5.22;;
74974;SDS011;68459;50.836;19.138;2023-04-24T14:31:29;10.85;;;5.70;;
74974;SDS011;68459;50.836;19.138;2023-04-24T14:34:33;5.87;;;4.57;;
74974;SDS011;68459;50.836;19.138;2023-04-24T14:37:38;9.20;;;5.00;;
74974;SDS011;68459;50.836;19.138;2023-04-24T14:40:42;6.85;;;4.30;;
74974;SDS011;68459;50.836;19.138;2023-04-24T14:44:07;6.05;;;4.40;;
74974;SDS011;68459;50.836;19.138;2023-04-24T14:47:10;9.27;;;4.55;;
74974;SDS011;68459;50.836;19.138;2023-04-24T14:50:16;8.88;;;4.35;;
74974;SDS011;68459;50.836;19.138;2023-04-24T14:53:19;5.93;;;4.00;;
74974;SDS011;68459;50.836;19.138;2023-04-24T14:56:24;8.93;;;4.20;;
74974;SDS011;68459;50.836;19.138;2023-04-24T14:59:28;6.05;;;4.25;;
74974;SDS011;68459;50.836;19.138;2023-04-24T15:02:33;8.98;;;4.60;;
74974;SDS011;68459;50.836;19.138;2023-04-24T15:05:40;6.13;;;4.40;;
74974;SDS011;68459;50.836;19.138;2023-04-24T15:08:44;7.00;;;4.03;;
74974;SDS011;68459;50.836;19.138;2023-04-24T15:11:51;5.00;;;3.67;;
74974;SDS011;68459;50.836;19.138;2023-04-24T15:14:55;5.35;;;4.10;;
74974;SDS011;68459;50.836;19.138;2023-04-24T15:18:00;7.32;;;4.60;;
74974;SDS011;68459;50.836;19.138;2023-04-24T15:21:06;5.65;;;4.43;;
74974;SDS011;68459;50.836;19.138;2023-04-24T15:24:09;6.47;;;4.18;;
74974;SDS011;68459;50.836;19.138;2023-04-24T15:27:13;10.73;;;4.53;;
74974;SDS011;68459;50.836;19.138;2023-04-24T15:30:17;5.32;;;4.18;;
74974;SDS011;68459;50.836;19.138;2023-04-24T15:33:21;7.93;;;4.30;;
74974;SDS011;68459;50.836;19.138;2023-04-24T15:36:25;6.90;;;4.60;;
74974;SDS011;68459;50.836;19.138;2023-04-24T15:39:29;5.90;;;4.23;;
74974;SDS011;68459;50.836;19.138;2023-04-24T15:42:33;7.32;;;4.05;;
74974;SDS011;68459;50.836;19.138;2023-04-24T15:45:37;5.63;;;4.00;;
74974;SDS011;68459;50.836;19.138;2023-04-24T15:48:41;7.95;;;4.35;;
74974;SDS011;68459;50.836;19.138;2023-04-24T15:51:47;6.80;;;4.38;;
74974;SDS011;68459;50.836;19.138;2023-04-24T15:54:50;7.20;;;4.30;;
74974;SDS011;68459;50.836;19.138;2023-04-24T15:57:54;7.50;;;4.53;;
74974;SDS011;68459;50.836;19.138;2023-04-24T16:00:57;7.90;;;4.50;;
74974;SDS011;68459;50.836;19.138;2023-04-24T16:04:02;7.75;;;4.50;;
74974;SDS011;68459;50.836;19.138;2023-04-24T16:07:07;5.78;;;4.38;;
74974;SDS011;68459;50.836;19.138;2023-04-24T16:10:11;6.72;;;4.05;;
74974;SDS011;68459;50.836;19.138;2023-04-24T16:13:14;5.63;;;4.37;;
74974;SDS011;68459;50.836;19.138;2023-04-24T16:16:19;8.30;;;4.28;;
74974;SDS011;68459;50.836;19.138;2023-04-24T16:19:24;6.60;;;4.40;;
74974;SDS011;68459;50.836;19.138;2023-04-24T16:22:30;6.72;;;4.38;;
74974;SDS011;68459;50.836;19.138;2023-04-24T16:25:33;7.60;;;4.13;;
74974;SDS011;68459;50.836;19.138;2023-04-24T16:28:37;6.13;;;4.22;;
74974;SDS011;68459;50.836;19.138;2023-04-24T16:31:41;6.32;;;4.80;;
74974;SDS011;68459;50.836;19.138;2023-04-24T16:34:45;6.22;;;4.32;;
74974;SDS011;68459;50.836;19.138;2023-04-24T16:37:50;7.30;;;4.60;;
74974;SDS011;68459;50.836;19.138;2023-04-24T16:40:54;6.88;;;4.32;;
74974;SDS011;68459;50.836;19.138;2023-04-24T16:43:58;8.02;;;4.45;;
74974;SDS011;68459;50.836;19.138;2023-04-24T16:47:02;5.60;;;3.97;;
74974;SDS011;68459;50.836;19.138;2023-04-24T16:50:06;9.65;;;4.63;;
74974;SDS011;68459;50.836;19.138;2023-04-24T16:53:12;6.95;;;4.18;;
74974;SDS011;68459;50.836;19.138;2023-04-24T16:56:16;6.23;;;4.07;;
74974;SDS011;68459;50.836;19.138;2023-04-24T16:59:20;7.38;;;4.25;;
74974;SDS011;68459;50.836;19.138;2023-04-24T17:02:24;7.18;;;4.00;;
74974;SDS011;68459;50.836;19.138;2023-04-24T17:05:30;6.15;;;4.00;;
74974;SDS011;68459;50.836;19.138;2023-04-24T17:08:36;6.53;;;4.15;;
74974;SDS011;68459;50.836;19.138;2023-04-24T17:11:40;5.18;;;3.92;;
74974;SDS011;68459;50.836;19.138;2023-04-24T17:14:44;6.10;;;4.47;;
74974;SDS011;68459;50.836;19.138;2023-04-24T17:17:47;5.30;;;3.93;;
74974;SDS011;68459;50.836;19.138;2023-04-24T17:20:51;7.07;;;4.95;;
74974;SDS011;68459;50.836;19.138;2023-04-24T17:23:56;7.28;;;4.45;;
74974;SDS011;68459;50.836;19.138;2023-04-24T17:27:00;9.33;;;5.33;;
74974;SDS011;68459;50.836;19.138;2023-04-24T17:30:15;8.30;;;4.82;;
74974;SDS011;68459;50.836;19.138;2023-04-24T17:33:19;6.70;;;4.95;;
74974;SDS011;68459;50.836;19.138;2023-04-24T17:36:23;8.80;;;4.78;;
74974;SDS011;68459;50.836;19.138;2023-04-24T17:39:28;7.55;;;5.10;;
74974;SDS011;68459;50.836;19.138;2023-04-24T17:42:32;12.45;;;4.78;;
74974;SDS011;68459;50.836;19.138;2023-04-24T17:45:38;7.07;;;5.10;;
74974;SDS011;68459;50.836;19.138;2023-04-24T17:48:42;6.70;;;4.80;;
74974;SDS011;68459;50.836;19.138;2023-04-24T17:51:49;8.35;;;4.93;;
74974;SDS011;68459;50.836;19.138;2023-04-24T17:54:55;8.60;;;4.90;;
74974;SDS011;68459;50.836;19.138;2023-04-24T17:57:58;8.00;;;4.80;;
74974;SDS011;68459;50.836;19.138;2023-04-24T18:01:03;7.28;;;5.10;;
74974;SDS011;68459;50.836;19.138;2023-04-24T18:04:07;10.02;;;5.28;;
74974;SDS011;68459;50.836;19.138;2023-04-24T18:07:12;7.30;;;5.50;;
74974;SDS011;68459;50.836;19.138;2023-04-24T18:10:17;8.38;;;5.72;;